ADDS METAR Data INFO

IDs: Format: Raw Decoded Include TAF

Data at: 0925 UTC 16 Sep 2014

Region: TOP
KATL 160852Z 00000KT 4SM BR OVC004 22/21 A3009 RMK AO2 RAB22E42 SLP181 P0000 60000 T02220211 56010

KBOS 160854Z 18004KT 10SM BKN180 13/09 A3005 RMK AO2 SLP177 T01330094 55012

KBWI 160854Z 23003KT 10SM FEW016 SCT095 SCT130 16/14 A2999 RMK AO2 SLP155 T01610144 56015

KCLE 160851Z 24005KT 5SM -RA BR FEW006 BKN046 OVC055 12/11 A3011 RMK AO2 RAB43 SLP195 P0000 60000 T01220111 53003

KCLT 160852Z 00000KT 6SM BR OVC005 21/20 A3007 RMK AO2 SLP175 T02110200 55017

KCVG 160852Z 03005KT 4SM BR FEW002 OVC005 15/13 A3010 RMK AO2 SLP186 60000 T01500133 51001

KDCA 160852Z 22003KT 10SM SCT017 BKN110 BKN250 19/16 A3001 RMK AO2 SLP163 60000 T01940156 55009

KDEN 160853Z 26004KT 10SM CLR 12/08 A3020 RMK AO2 SLP169 T01220083 57008

KDFW 160853Z 11003KT 10SM BKN120 BKN160 24/20 A3010 RMK AO2 SLP184 T02440200 57005

KDTW 160853Z 32005KT 10SM SCT012 BKN025 OVC045 11/09 A3012 RMK AO2 SLP200 T01110094 50005

KEWR 160851Z 00000KT 10SM SCT055 SCT190 BKN250 15/12 A3002 RMK AO2 SLP166 T01500117 58012

KFLL 160853Z 34003KT 10SM FEW025 27/24 A3005 RMK AO2 SLP177 T02670239 56013

KIAD 160852Z 00000KT 6SM BR FEW110 14/14 A3001 RMK AO2 SLP161 T01390139 55006

KIAH 160853Z 06004KT 10SM FEW050 BKN250 24/23 A3004 RMK AO2 SLP172 T02440233 58009

KJFK 160851Z 24008KT 10SM BKN060 OVC190 17/13 A3004 RMK AO2 SLP173 T01720128 58009

KLAS 160856Z 22007KT 10SM CLR 30/09 A2986 RMK AO2 SLP079 T03000089 51001

KLAX 160853Z 10003KT 10SM CLR 24/16 A2978 RMK AO2 SLP079 T02440156 58000

KLGA 160851Z 22005KT 10SM BKN055 OVC240 17/12 A3003 RMK AO2 SLP167 T01720122 58009

KMCO 160853Z 00000KT 10SM SCT250 24/23 A3009 RMK AO2 SLP186 T02390228 56012

KMDW 160851Z 29005KT 10SM FEW025 10/08 A3019 RMK AO2 SLP223 T01000083 53005

KMEM 160854Z 00000KT 10SM BKN110 BKN150 21/18 A3011 RMK AO2 SLP191 T02110183 51002 $

KMIA 160853Z 00000KT 10SM FEW025 FEW250 26/23 A3006 RMK AO2 SLP180 T02610233 56012

KMSP 160853Z 18003KT 10SM CLR 07/04 A3021 RMK AO2 SLP232 T00720044 58003

KORD 160851Z 29004KT 10SM CLR 08/07 A3019 RMK AO2 SLP223 T00830067 53003

KPDX 160853Z 18006KT 10SM BKN190 18/11 A2988 RMK AO2 SLP117 T01830106 51023

KPHL 160923Z 14005KT 8SM -RA BKN019 OVC027 17/13 A2999 RMK AO2 RAB18 P0000 T01670133

KPHX 160851Z 08011KT 10SM SCT110 BKN200 31/18 A2988 RMK AO2 SLP097 T03110183 51019

KPIT 160903Z 31008KT 5SM -RA BR BKN008 OVC013 13/13 A3006 RMK AO2 P0000 T01330128 $

KSAN 160851Z 31003KT 9SM CLR 24/21 A2979 RMK AO2 SLP086 T02440206 56008

KSEA 160853Z 00000KT 10SM SCT220 15/09 A2986 RMK AO2 SLP113 T01500094 53008

KSFO 160856Z 00000KT 10SM SCT008 18/16 A2994 RMK AO2 SLP139 T01830156 51004

KSLC 160853Z 15007KT 10SM CLR 18/07 A3010 RMK AO2 SLP137 T01830067 50005

KSTL 160908Z 02004KT 9SM BKN011 BKN026 BKN043 15/12 A3020 RMK AO2

KTPA 160853Z 00000KT 10SM BKN140 26/22 A3009 RMK AO2 SLP187 T02560222 56014


Page loaded:  09:25 UTC  |   02:25 AM Pacific  |   03:25 AM Mountain  |   04:25 AM Central  |   05:25 AM Eastern

 

ADVISORIES

FORECASTS

FORECASTS

OBSERVATIONS

USER TOOLS

ABOUT US